sensor_id;sensor_type;location;lat;lon;timestamp;pressure;altitude;pressure_sealevel;temperature;humidity
51297;BME280;37380;45.186;9.792;2023-04-04T00:01:59;100802.50;;;7.77;85.54
51297;BME280;37380;45.186;9.792;2023-04-04T00:04:29;100861.41;;;8.12;84.81
51297;BME280;37380;45.186;9.792;2023-04-04T00:06:56;100918.41;;;8.25;85.93
51297;BME280;37380;45.186;9.792;2023-04-04T00:09:24;100915.28;;;8.32;85.55
51297;BME280;37380;45.186;9.792;2023-04-04T00:11:52;100968.53;;;8.57;85.93
51297;BME280;37380;45.186;9.792;2023-04-04T00:14:19;100890.16;;;8.15;86.09
51297;BME280;37380;45.186;9.792;2023-04-04T00:16:47;100914.09;;;8.26;86.67
51297;BME280;37380;45.186;9.792;2023-04-04T00:19:21;100942.81;;;8.27;86.53
51297;BME280;37380;45.186;9.792;2023-04-04T00:22:15;100952.34;;;8.45;86.35
51297;BME280;37380;45.186;9.792;2023-04-04T00:24:43;100883.25;;;8.15;85.86
51297;BME280;37380;45.186;9.792;2023-04-04T00:27:10;100972.06;;;8.77;85.41
51297;BME280;37380;45.186;9.792;2023-04-04T00:29:37;100951.56;;;8.65;85.08
51297;BME280;37380;45.186;9.792;2023-04-04T00:32:04;100959.53;;;8.88;84.84
51297;BME280;37380;45.186;9.792;2023-04-04T00:34:32;100865.91;;;8.16;85.50
51297;BME280;37380;45.186;9.792;2023-04-04T00:37:00;100956.34;;;8.56;86.27
51297;BME280;37380;45.186;9.792;2023-04-04T00:39:27;100905.75;;;8.33;86.09
51297;BME280;37380;45.186;9.792;2023-04-04T00:41:54;100939.22;;;8.43;86.67
51297;BME280;37380;45.186;9.792;2023-04-04T00:44:22;100921.38;;;8.51;85.87
51297;BME280;37380;45.186;9.792;2023-04-04T00:46:51;100953.31;;;8.66;86.57
51297;BME280;37380;45.186;9.792;2023-04-04T00:49:18;100910.22;;;8.35;86.13
51297;BME280;37380;45.186;9.792;2023-04-04T00:51:45;100776.88;;;7.66;86.94
51297;BME280;37380;45.186;9.792;2023-04-04T00:54:19;100918.84;;;8.34;87.18
51297;BME280;37380;45.186;9.792;2023-04-04T00:57:20;100967.97;;;8.45;89.00
51297;BME280;37380;45.186;9.792;2023-04-04T01:00:14;100879.56;;;7.92;88.12
51297;BME280;37380;45.186;9.792;2023-04-04T01:02:42;100898.50;;;8.08;86.85
51297;BME280;37380;45.186;9.792;2023-04-04T01:05:09;100912.19;;;8.04;86.87
51297;BME280;37380;45.186;9.792;2023-04-04T01:12:33;100957.09;;;8.18;86.01
51297;BME280;37380;45.186;9.792;2023-04-04T01:15:34;100913.22;;;7.89;86.74
51297;BME280;37380;45.186;9.792;2023-04-04T01:18:30;100913.38;;;7.92;86.40
51297;BME280;37380;45.186;9.792;2023-04-04T01:21:00;100922.31;;;7.98;86.35
51297;BME280;37380;45.186;9.792;2023-04-04T01:26:49;100955.16;;;8.13;87.02
51297;BME280;37380;45.186;9.792;2023-04-04T01:29:17;100925.94;;;7.83;86.74
51297;BME280;37380;45.186;9.792;2023-04-04T01:31:50;100953.81;;;7.86;87.93
51297;BME280;37380;45.186;9.792;2023-04-04T01:34:27;100970.41;;;8.06;88.03
51297;BME280;37380;45.186;9.792;2023-04-04T01:37:06;100884.75;;;7.57;87.88
51297;BME280;37380;45.186;9.792;2023-04-04T01:42:43;100949.66;;;7.89;88.50
51297;BME280;37380;45.186;9.792;2023-04-04T01:45:10;100924.84;;;7.62;88.86
51297;BME280;37380;45.186;9.792;2023-04-04T01:47:39;100949.78;;;7.92;89.10
51297;BME280;37380;45.186;9.792;2023-04-04T01:54:54;100859.66;;;7.23;89.63
51297;BME280;37380;45.186;9.792;2023-04-04T01:57:54;100910.53;;;7.36;92.43
51297;BME280;37380;45.186;9.792;2023-04-04T02:00:48;100906.75;;;7.29;92.36
51297;BME280;37380;45.186;9.792;2023-04-04T02:03:15;100890.19;;;7.27;91.76
51297;BME280;37380;45.186;9.792;2023-04-04T02:05:49;100860.66;;;7.09;92.09
51297;BME280;37380;45.186;9.792;2023-04-04T02:08:43;100760.75;;;6.51;92.21
51297;BME280;37380;45.186;9.792;2023-04-04T02:11:10;100891.53;;;7.02;94.00
51297;BME280;37380;45.186;9.792;2023-04-04T02:13:38;100861.41;;;7.06;91.92
51297;BME280;37380;45.186;9.792;2023-04-04T02:16:13;100888.94;;;7.02;93.67
51297;BME280;37380;45.186;9.792;2023-04-04T02:18:41;100906.44;;;7.23;90.75
51297;BME280;37380;45.186;9.792;2023-04-04T02:21:08;100849.41;;;6.92;90.70
51297;BME280;37380;45.186;9.792;2023-04-04T02:23:36;100852.72;;;6.89;89.24
51297;BME280;37380;45.186;9.792;2023-04-04T02:26:05;100859.47;;;7.02;88.53
51297;BME280;37380;45.186;9.792;2023-04-04T02:28:32;100900.53;;;7.43;86.96
51297;BME280;37380;45.186;9.792;2023-04-04T02:31:00;100905.78;;;7.27;88.59
51297;BME280;37380;45.186;9.792;2023-04-04T02:33:28;100946.00;;;7.68;87.80
51297;BME280;37380;45.186;9.792;2023-04-04T02:35:59;100933.59;;;7.46;87.97
51297;BME280;37380;45.186;9.792;2023-04-04T02:38:27;100854.19;;;7.00;87.99
51297;BME280;37380;45.186;9.792;2023-04-04T02:40:54;100949.97;;;7.61;87.25
51297;BME280;37380;45.186;9.792;2023-04-04T02:43:21;100905.47;;;7.21;88.05
51297;BME280;37380;45.186;9.792;2023-04-04T02:45:49;100880.16;;;7.00;87.59
51297;BME280;37380;45.186;9.792;2023-04-04T02:48:21;100894.28;;;7.06;87.93
51297;BME280;37380;45.186;9.792;2023-04-04T02:50:52;100762.25;;;6.30;87.29
51297;BME280;37380;45.186;9.792;2023-04-04T02:53:25;100864.28;;;6.78;87.85
51297;BME280;37380;45.186;9.792;2023-04-04T02:56:40;100936.00;;;7.25;85.65
51297;BME280;37380;45.186;9.792;2023-04-04T02:59:34;100896.88;;;6.89;85.62
51297;BME280;37380;45.186;9.792;2023-04-04T03:02:01;100956.69;;;7.40;85.37
51297;BME280;37380;45.186;9.792;2023-04-04T03:04:29;100984.56;;;7.26;88.73
51297;BME280;37380;45.186;9.792;2023-04-04T03:06:56;100981.66;;;7.36;87.63
51297;BME280;37380;45.186;9.792;2023-04-04T03:09:23;100921.56;;;7.14;86.26
51297;BME280;37380;45.186;9.792;2023-04-04T03:11:57;100986.84;;;7.36;86.83
51297;BME280;37380;45.186;9.792;2023-04-04T03:15:00;100947.88;;;7.20;86.15
51297;BME280;37380;45.186;9.792;2023-04-04T03:17:54;100949.19;;;6.95;87.15
51297;BME280;37380;45.186;9.792;2023-04-04T03:20:25;100984.09;;;7.17;88.45
51297;BME280;37380;45.186;9.792;2023-04-04T03:22:53;100988.22;;;7.13;87.59
51297;BME280;37380;45.186;9.792;2023-04-04T03:25:19;100973.59;;;7.15;86.30
51297;BME280;37380;45.186;9.792;2023-04-04T03:27:46;100973.53;;;7.14;85.56
51297;BME280;37380;45.186;9.792;2023-04-04T03:30:20;100934.41;;;6.94;85.52
51297;BME280;37380;45.186;9.792;2023-04-04T03:32:47;100937.41;;;7.02;83.99
51297;BME280;37380;45.186;9.792;2023-04-04T03:35:16;100981.66;;;7.20;84.53
51297;BME280;37380;45.186;9.792;2023-04-04T03:37:43;100946.97;;;7.03;81.41
51297;BME280;37380;45.186;9.792;2023-04-04T03:40:11;100992.19;;;6.90;81.41
51297;BME280;37380;45.186;9.792;2023-04-04T03:42:38;100926.16;;;6.54;81.98
51297;BME280;37380;45.186;9.792;2023-04-04T03:45:09;100957.63;;;6.75;80.45
51297;BME280;37380;45.186;9.792;2023-04-04T03:47:37;100991.22;;;6.88;80.35
51297;BME280;37380;45.186;9.792;2023-04-04T03:50:05;100950.38;;;6.69;81.48
51297;BME280;37380;45.186;9.792;2023-04-04T03:52:38;100971.81;;;6.82;80.77
51297;BME280;37380;45.186;9.792;2023-04-04T03:55:14;101007.28;;;6.81;81.25
51297;BME280;37380;45.186;9.792;2023-04-04T03:58:08;101001.44;;;6.85;82.30
51297;BME280;37380;45.186;9.792;2023-04-04T04:00:42;100960.00;;;6.55;82.39
51297;BME280;37380;45.186;9.792;2023-04-04T04:03:36;100919.47;;;6.26;82.74
51297;BME280;37380;45.186;9.792;2023-04-04T04:06:03;101010.44;;;6.75;83.55
51297;BME280;37380;45.186;9.792;2023-04-04T04:08:31;100948.38;;;6.32;84.11
51297;BME280;37380;45.186;9.792;2023-04-04T04:11:03;101006.25;;;6.63;84.49
51297;BME280;37380;45.186;9.792;2023-04-04T04:13:32;100995.47;;;6.55;84.77
51297;BME280;37380;45.186;9.792;2023-04-04T04:16:01;100962.47;;;6.06;85.42
51297;BME280;37380;45.186;9.792;2023-04-04T04:18:29;100923.47;;;5.75;86.31
51297;BME280;37380;45.186;9.792;2023-04-04T04:20:57;101015.75;;;6.16;87.56
51297;BME280;37380;45.186;9.792;2023-04-04T04:23:31;101023.00;;;6.22;87.23
51297;BME280;37380;45.186;9.792;2023-04-04T04:25:58;101021.94;;;6.18;85.57
51297;BME280;37380;45.186;9.792;2023-04-04T04:28:30;101022.00;;;5.90;87.47
51297;BME280;37380;45.186;9.792;2023-04-04T04:31:07;101030.81;;;6.07;85.94
51297;BME280;37380;45.186;9.792;2023-04-04T04:33:40;100991.53;;;5.56;88.37
51297;BME280;37380;45.186;9.792;2023-04-04T04:36:08;101034.00;;;5.73;88.03
51297;BME280;37380;45.186;9.792;2023-04-04T04:38:45;100992.41;;;5.42;89.70
51297;BME280;37380;45.186;9.792;2023-04-04T04:41:14;100979.59;;;5.30;89.15
51297;BME280;37380;45.186;9.792;2023-04-04T04:43:45;101005.44;;;5.43;90.16
51297;BME280;37380;45.186;9.792;2023-04-04T04:46:12;101045.69;;;5.66;89.40
51297;BME280;37380;45.186;9.792;2023-04-04T04:48:40;101032.19;;;5.57;89.38
51297;BME280;37380;45.186;9.792;2023-04-04T04:51:08;101036.38;;;5.55;90.28
51297;BME280;37380;45.186;9.792;2023-04-04T04:53:56;101013.34;;;5.32;90.82
51297;BME280;37380;45.186;9.792;2023-04-04T04:56:58;101036.75;;;5.61;90.15
51297;BME280;37380;45.186;9.792;2023-04-04T05:00:00;101039.53;;;5.64;89.67
51297;BME280;37380;45.186;9.792;2023-04-04T05:03:00;101032.00;;;5.69;89.31
51297;BME280;37380;45.186;9.792;2023-04-04T05:05:39;101038.03;;;5.83;88.72
51297;BME280;37380;45.186;9.792;2023-04-04T05:08:10;101039.44;;;5.93;88.06
51297;BME280;37380;45.186;9.792;2023-04-04T05:10:46;100992.06;;;5.65;87.02
51297;BME280;37380;45.186;9.792;2023-04-04T05:13:19;101033.50;;;6.08;85.70
51297;BME280;37380;45.186;9.792;2023-04-04T05:16:13;101062.69;;;6.50;83.19
51297;BME280;37380;45.186;9.792;2023-04-04T05:18:44;101010.72;;;6.49;81.25
51297;BME280;37380;45.186;9.792;2023-04-04T05:21:12;101059.81;;;6.92;79.21
51297;BME280;37380;45.186;9.792;2023-04-04T05:23:39;101025.38;;;6.48;80.17
51297;BME280;37380;45.186;9.792;2023-04-04T05:26:07;101040.00;;;6.63;81.05
51297;BME280;37380;45.186;9.792;2023-04-04T05:28:37;101018.88;;;6.40;81.36
51297;BME280;37380;45.186;9.792;2023-04-04T05:31:06;101017.44;;;6.30;81.81
51297;BME280;37380;45.186;9.792;2023-04-04T05:33:41;101052.94;;;6.61;81.89
51297;BME280;37380;45.186;9.792;2023-04-04T05:36:35;101053.25;;;6.67;81.27
51297;BME280;37380;45.186;9.792;2023-04-04T05:39:05;101003.06;;;6.21;81.26
51297;BME280;37380;45.186;9.792;2023-04-04T05:41:35;100954.06;;;5.51;82.98
51297;BME280;37380;45.186;9.792;2023-04-04T05:44:10;101069.44;;;6.47;82.25
51297;BME280;37380;45.186;9.792;2023-04-04T05:46:38;101021.75;;;6.30;81.45
51297;BME280;37380;45.186;9.792;2023-04-04T05:49:06;100964.06;;;5.89;81.38
51297;BME280;37380;45.186;9.792;2023-04-04T05:51:37;101024.81;;;6.23;81.23
51297;BME280;37380;45.186;9.792;2023-04-04T05:54:14;101048.44;;;6.58;80.42
51297;BME280;37380;45.186;9.792;2023-04-04T05:57:15;101000.53;;;6.37;79.67
51297;BME280;37380;45.186;9.792;2023-04-04T05:59:55;101074.00;;;6.82;79.95
51297;BME280;37380;45.186;9.792;2023-04-04T06:02:59;101062.59;;;6.64;79.84
51297;BME280;37380;45.186;9.792;2023-04-04T06:06:01;101043.09;;;6.55;80.71
51297;BME280;37380;45.186;9.792;2023-04-04T06:08:42;101078.69;;;6.73;80.40
51297;BME280;37380;45.186;9.792;2023-04-04T06:11:15;101100.53;;;6.62;81.66
51297;BME280;37380;45.186;9.792;2023-04-04T06:13:44;101102.19;;;6.30;81.34
51297;BME280;37380;45.186;9.792;2023-04-04T06:16:15;101060.66;;;6.45;79.48
51297;BME280;37380;45.186;9.792;2023-04-04T06:18:42;101054.50;;;6.74;77.48
51297;BME280;37380;45.186;9.792;2023-04-04T06:21:10;101096.28;;;6.93;76.44
51297;BME280;37380;45.186;9.792;2023-04-04T06:23:39;101064.88;;;6.74;75.05
51297;BME280;37380;45.186;9.792;2023-04-04T06:26:06;101062.75;;;6.67;74.26
51297;BME280;37380;45.186;9.792;2023-04-04T06:28:48;101098.47;;;7.02;73.02
51297;BME280;37380;45.186;9.792;2023-04-04T06:31:20;101101.44;;;7.41;71.39
51297;BME280;37380;45.186;9.792;2023-04-04T06:33:48;101059.69;;;7.38;69.46
51297;BME280;37380;45.186;9.792;2023-04-04T06:36:17;101078.56;;;7.34;69.58
51297;BME280;37380;45.186;9.792;2023-04-04T06:38:46;101073.84;;;7.43;67.91
51297;BME280;37380;45.186;9.792;2023-04-04T06:41:16;101074.84;;;7.79;66.25
51297;BME280;37380;45.186;9.792;2023-04-04T06:43:45;101095.59;;;7.78;65.60
51297;BME280;37380;45.186;9.792;2023-04-04T06:46:14;101106.06;;;7.96;64.63
51297;BME280;37380;45.186;9.792;2023-04-04T06:48:41;101088.38;;;7.88;65.71
51297;BME280;37380;45.186;9.792;2023-04-04T06:51:09;101081.88;;;7.31;66.27
51297;BME280;37380;45.186;9.792;2023-04-04T06:53:48;101116.13;;;8.06;66.09
51297;BME280;37380;45.186;9.792;2023-04-04T06:56:43;101107.97;;;8.16;60.94
51297;BME280;37380;45.186;9.792;2023-04-04T06:59:16;101106.66;;;8.58;60.55
51297;BME280;37380;45.186;9.792;2023-04-04T07:02:17;101053.53;;;8.73;59.37
51297;BME280;37380;45.186;9.792;2023-04-04T07:05:11;101074.59;;;8.25;58.93
51297;BME280;37380;45.186;9.792;2023-04-04T07:07:40;101054.75;;;8.27;58.87
51297;BME280;37380;45.186;9.792;2023-04-04T07:10:07;101069.94;;;8.36;58.06
51297;BME280;37380;45.186;9.792;2023-04-04T07:12:41;101128.28;;;8.75;58.38
51297;BME280;37380;45.186;9.792;2023-04-04T07:15:44;101101.91;;;9.23;57.11
51297;BME280;37380;45.186;9.792;2023-04-04T07:18:38;101069.97;;;9.09;56.82
51297;BME280;37380;45.186;9.792;2023-04-04T07:21:06;101129.31;;;9.91;52.67
51297;BME280;37380;45.186;9.792;2023-04-04T07:23:33;101083.19;;;9.32;52.63
51297;BME280;37380;45.186;9.792;2023-04-04T07:26:00;101093.88;;;9.77;52.22
51297;BME280;37380;45.186;9.792;2023-04-04T07:28:27;101118.06;;;9.92;53.29
51297;BME280;37380;45.186;9.792;2023-04-04T07:30:59;101108.03;;;10.01;52.79
51297;BME280;37380;45.186;9.792;2023-04-04T07:33:34;101094.22;;;10.04;51.66
51297;BME280;37380;45.186;9.792;2023-04-04T07:36:21;101087.81;;;9.97;55.06
51297;BME280;37380;45.186;9.792;2023-04-04T07:38:49;101127.97;;;11.04;52.12
51297;BME280;37380;45.186;9.792;2023-04-04T07:41:15;101098.59;;;10.05;50.84
51297;BME280;37380;45.186;9.792;2023-04-04T07:43:43;101113.38;;;10.65;48.26
51297;BME280;37380;45.186;9.792;2023-04-04T07:46:10;101084.00;;;11.40;47.26
51297;BME280;37380;45.186;9.792;2023-04-04T07:48:37;101113.63;;;11.39;45.30
51297;BME280;37380;45.186;9.792;2023-04-04T07:51:04;101106.66;;;11.86;44.78
51297;BME280;37380;45.186;9.792;2023-04-04T07:53:38;101070.78;;;11.60;44.95
51297;BME280;37380;45.186;9.792;2023-04-04T07:56:33;101140.91;;;10.57;47.28
51297;BME280;37380;45.186;9.792;2023-04-04T07:59:06;101068.47;;;11.69;44.64
51297;BME280;37380;45.186;9.792;2023-04-04T08:02:07;101132.88;;;11.64;44.27
51297;BME280;37380;45.186;9.792;2023-04-04T08:05:02;101077.84;;;12.10;43.81
51297;BME280;37380;45.186;9.792;2023-04-04T08:07:29;101093.94;;;13.29;40.47
51297;BME280;37380;45.186;9.792;2023-04-04T08:09:56;101110.50;;;11.03;42.64
51297;BME280;37380;45.186;9.792;2023-04-04T08:12:23;101115.13;;;10.67;43.50
51297;BME280;37380;45.186;9.792;2023-04-04T08:14:50;101089.56;;;10.80;44.18
51297;BME280;37380;45.186;9.792;2023-04-04T08:17:18;101116.19;;;11.84;42.35
51297;BME280;37380;45.186;9.792;2023-04-04T08:19:46;101020.03;;;11.80;41.57
51297;BME280;37380;45.186;9.792;2023-04-04T08:22:13;101119.63;;;12.33;41.01
51297;BME280;37380;45.186;9.792;2023-04-04T08:24:40;101059.25;;;11.54;42.92
51297;BME280;37380;45.186;9.792;2023-04-04T08:27:07;101088.63;;;12.45;42.15
51297;BME280;37380;45.186;9.792;2023-04-04T08:29:34;101111.84;;;11.85;41.51
51297;BME280;37380;45.186;9.792;2023-04-04T08:32:01;101063.22;;;11.91;41.40
51297;BME280;37380;45.186;9.792;2023-04-04T08:34:28;101068.28;;;11.63;42.60
51297;BME280;37380;45.186;9.792;2023-04-04T08:36:55;101040.81;;;11.27;41.86
51297;BME280;37380;45.186;9.792;2023-04-04T08:39:22;101053.13;;;11.30;44.74
51297;BME280;37380;45.186;9.792;2023-04-04T08:41:56;101096.38;;;11.44;45.56
51297;BME280;37380;45.186;9.792;2023-04-04T08:44:27;101123.88;;;11.33;46.56
51297;BME280;37380;45.186;9.792;2023-04-04T08:47:00;101073.69;;;11.91;44.45
51297;BME280;37380;45.186;9.792;2023-04-04T08:49:30;101115.50;;;11.66;42.98
51297;BME280;37380;45.186;9.792;2023-04-04T08:51:58;101119.28;;;11.74;43.21
51297;BME280;37380;45.186;9.792;2023-04-04T08:54:34;101114.00;;;10.39;48.57
51297;BME280;37380;45.186;9.792;2023-04-04T08:57:37;101084.94;;;9.91;46.54
51297;BME280;37380;45.186;9.792;2023-04-04T09:00:37;101115.53;;;10.98;45.78
51297;BME280;37380;45.186;9.792;2023-04-04T09:03:26;101109.13;;;11.35;43.80
51297;BME280;37380;45.186;9.792;2023-04-04T09:05:54;101042.56;;;12.00;43.04
51297;BME280;37380;45.186;9.792;2023-04-04T09:08:22;101124.66;;;12.78;41.75
51297;BME280;37380;45.186;9.792;2023-04-04T09:10:52;101075.19;;;12.90;42.09
51297;BME280;37380;45.186;9.792;2023-04-04T09:13:19;101065.00;;;12.99;41.10
51297;BME280;37380;45.186;9.792;2023-04-04T09:15:51;101101.47;;;13.47;39.91
51297;BME280;37380;45.186;9.792;2023-04-04T09:18:19;101039.69;;;12.73;39.37
51297;BME280;37380;45.186;9.792;2023-04-04T09:20:47;101111.81;;;12.87;39.58
51297;BME280;37380;45.186;9.792;2023-04-04T09:23:15;101113.28;;;12.00;42.87
51297;BME280;37380;45.186;9.792;2023-04-04T09:25:52;101070.84;;;10.70;45.87
51297;BME280;37380;45.186;9.792;2023-04-04T09:28:22;101108.09;;;11.78;43.09
51297;BME280;37380;45.186;9.792;2023-04-04T09:30:50;101039.94;;;11.27;44.58
51297;BME280;37380;45.186;9.792;2023-04-04T09:33:19;101105.53;;;12.55;42.29
51297;BME280;37380;45.186;9.792;2023-04-04T09:35:54;101107.56;;;12.36;41.09
51297;BME280;37380;45.186;9.792;2023-04-04T09:38:25;101097.53;;;13.06;42.09
51297;BME280;37380;45.186;9.792;2023-04-04T09:40:56;101103.59;;;12.76;41.91
51297;BME280;37380;45.186;9.792;2023-04-04T09:43:24;101105.59;;;13.39;40.01
51297;BME280;37380;45.186;9.792;2023-04-04T09:45:53;101068.06;;;13.43;39.93
51297;BME280;37380;45.186;9.792;2023-04-04T09:48:29;101113.44;;;13.99;39.81
51297;BME280;37380;45.186;9.792;2023-04-04T09:50:58;101111.94;;;13.77;39.07
51297;BME280;37380;45.186;9.792;2023-04-04T09:53:33;101091.84;;;13.48;39.79
51297;BME280;37380;45.186;9.792;2023-04-04T09:56:27;101092.97;;;13.56;38.15
51297;BME280;37380;45.186;9.792;2023-04-04T09:59:05;101033.50;;;12.99;40.60
51297;BME280;37380;45.186;9.792;2023-04-04T10:02:08;101095.28;;;12.10;40.78
51297;BME280;37380;45.186;9.792;2023-04-04T10:05:10;101062.72;;;11.53;44.08
51297;BME280;37380;45.186;9.792;2023-04-04T10:08:18;101092.34;;;12.52;42.15
51297;BME280;37380;45.186;9.792;2023-04-04T10:10:50;101112.75;;;12.62;42.56
51297;BME280;37380;45.186;9.792;2023-04-04T10:13:36;101118.94;;;13.47;41.00
51297;BME280;37380;45.186;9.792;2023-04-04T10:16:08;101120.69;;;13.76;38.42
51297;BME280;37380;45.186;9.792;2023-04-04T10:18:44;101116.03;;;12.29;43.79
51297;BME280;37380;45.186;9.792;2023-04-04T10:21:37;101119.31;;;13.61;41.58
51297;BME280;37380;45.186;9.792;2023-04-04T10:24:05;101122.34;;;14.38;39.09
51297;BME280;37380;45.186;9.792;2023-04-04T10:26:35;101102.03;;;12.54;41.82
51297;BME280;37380;45.186;9.792;2023-04-04T10:29:03;101090.44;;;11.72;45.88
51297;BME280;37380;45.186;9.792;2023-04-04T10:31:32;101093.53;;;13.46;41.39
51297;BME280;37380;45.186;9.792;2023-04-04T10:34:19;101115.53;;;14.46;40.35
51297;BME280;37380;45.186;9.792;2023-04-04T10:36:53;101074.41;;;12.93;39.51
51297;BME280;37380;45.186;9.792;2023-04-04T10:39:30;101060.94;;;12.80;39.97
51297;BME280;37380;45.186;9.792;2023-04-04T10:41:58;101062.50;;;12.75;41.10
51297;BME280;37380;45.186;9.792;2023-04-04T10:44:39;101038.13;;;12.78;42.39
51297;BME280;37380;45.186;9.792;2023-04-04T10:47:20;101021.69;;;13.13;40.92
51297;BME280;37380;45.186;9.792;2023-04-04T10:49:49;101106.34;;;13.65;39.47
51297;BME280;37380;45.186;9.792;2023-04-04T10:52:26;101102.25;;;12.09;42.24
51297;BME280;37380;45.186;9.792;2023-04-04T10:55:21;101070.75;;;13.16;40.51
51297;BME280;37380;45.186;9.792;2023-04-04T10:58:09;101110.00;;;12.84;39.23
51297;BME280;37380;45.186;9.792;2023-04-04T11:00:51;101058.38;;;12.55;39.72
51297;BME280;37380;45.186;9.792;2023-04-04T11:04:17;101094.78;;;13.58;42.16
51297;BME280;37380;45.186;9.792;2023-04-04T11:07:22;101089.00;;;14.71;41.12
51297;BME280;37380;45.186;9.792;2023-04-04T11:09:55;101087.38;;;14.42;38.13
51297;BME280;37380;45.186;9.792;2023-04-04T11:12:30;101079.78;;;12.97;39.87
51297;BME280;37380;45.186;9.792;2023-04-04T11:15:58;101094.00;;;12.77;38.83
51297;BME280;37380;45.186;9.792;2023-04-04T11:19:00;101055.00;;;12.32;41.19
51297;BME280;37380;45.186;9.792;2023-04-04T11:22:03;101025.00;;;13.06;40.29
51297;BME280;37380;45.186;9.792;2023-04-04T11:24:59;101059.78;;;13.91;40.46
51297;BME280;37380;45.186;9.792;2023-04-04T11:27:27;101077.16;;;13.86;37.72
51297;BME280;37380;45.186;9.792;2023-04-04T11:29:56;101049.53;;;14.02;39.54
51297;BME280;37380;45.186;9.792;2023-04-04T11:32:32;101055.38;;;14.23;37.70
51297;BME280;37380;45.186;9.792;2023-04-04T11:35:04;101022.44;;;14.38;37.90
51297;BME280;37380;45.186;9.792;2023-04-04T11:37:31;101076.63;;;14.33;38.33
51297;BME280;37380;45.186;9.792;2023-04-04T11:40:08;101039.09;;;14.75;36.26
51297;BME280;37380;45.186;9.792;2023-04-04T11:42:42;101076.13;;;14.47;36.51
51297;BME280;37380;45.186;9.792;2023-04-04T11:45:44;101074.13;;;13.41;38.94
51297;BME280;37380;45.186;9.792;2023-04-04T11:48:38;101019.41;;;13.54;40.04
51297;BME280;37380;45.186;9.792;2023-04-04T11:51:05;100956.31;;;13.85;37.40
51297;BME280;37380;45.186;9.792;2023-04-04T11:53:41;101009.56;;;12.88;38.12
51297;BME280;37380;45.186;9.792;2023-04-04T11:56:43;101059.56;;;13.52;39.82
51297;BME280;37380;45.186;9.792;2023-04-04T11:59:39;101048.81;;;13.74;37.49
51297;BME280;37380;45.186;9.792;2023-04-04T12:02:24;101043.72;;;13.80;40.69
51297;BME280;37380;45.186;9.792;2023-04-04T12:05:20;101023.13;;;14.31;36.50
51297;BME280;37380;45.186;9.792;2023-04-04T12:07:49;101007.94;;;14.54;35.92
51297;BME280;37380;45.186;9.792;2023-04-04T12:10:18;101026.53;;;13.00;40.13
51297;BME280;37380;45.186;9.792;2023-04-04T12:12:45;100993.38;;;13.30;35.85
51297;BME280;37380;45.186;9.792;2023-04-04T12:15:20;100955.84;;;13.04;35.67
51297;BME280;37380;45.186;9.792;2023-04-04T12:18:22;100973.69;;;12.03;38.31
51297;BME280;37380;45.186;9.792;2023-04-04T12:21:25;100978.66;;;11.20;38.58
51297;BME280;37380;45.186;9.792;2023-04-04T12:24:23;101033.34;;;12.12;38.85
51297;BME280;37380;45.186;9.792;2023-04-04T12:26:51;101006.97;;;12.60;37.49
51297;BME280;37380;45.186;9.792;2023-04-04T12:29:21;101016.69;;;13.21;37.63
51297;BME280;37380;45.186;9.792;2023-04-04T12:31:49;101017.88;;;13.02;37.56
51297;BME280;37380;45.186;9.792;2023-04-04T12:34:28;100962.59;;;12.10;37.03
51297;BME280;37380;45.186;9.792;2023-04-04T12:36:57;100900.28;;;11.74;39.19
51297;BME280;37380;45.186;9.792;2023-04-04T12:39:25;100931.59;;;12.24;39.06
51297;BME280;37380;45.186;9.792;2023-04-04T12:42:03;100974.22;;;13.04;42.50
51297;BME280;37380;45.186;9.792;2023-04-04T12:45:00;100986.06;;;13.52;38.88
51297;BME280;37380;45.186;9.792;2023-04-04T12:47:37;100985.72;;;13.71;37.73
51297;BME280;37380;45.186;9.792;2023-04-04T12:51:11;101013.25;;;13.54;39.18
51297;BME280;37380;45.186;9.792;2023-04-04T12:54:24;101004.59;;;13.58;38.46
51297;BME280;37380;45.186;9.792;2023-04-04T12:57:20;101011.97;;;13.71;37.65
51297;BME280;37380;45.186;9.792;2023-04-04T12:59:48;100950.75;;;13.41;36.96
51297;BME280;37380;45.186;9.792;2023-04-04T13:02:17;100958.22;;;12.95;35.72
51297;BME280;37380;45.186;9.792;2023-04-04T13:04:45;100990.94;;;12.51;37.97
51297;BME280;37380;45.186;9.792;2023-04-04T13:07:28;100940.84;;;12.13;38.29
51297;BME280;37380;45.186;9.792;2023-04-04T13:10:00;100938.47;;;11.68;38.94
51297;BME280;37380;45.186;9.792;2023-04-04T13:13:03;100995.63;;;11.55;39.96
51297;BME280;37380;45.186;9.792;2023-04-04T13:15:51;100952.44;;;11.68;40.01
51297;BME280;37380;45.186;9.792;2023-04-04T13:18:24;100985.13;;;12.05;41.55
51297;BME280;37380;45.186;9.792;2023-04-04T13:20:57;100973.69;;;11.77;39.09
51297;BME280;37380;45.186;9.792;2023-04-04T13:24:01;100966.28;;;12.44;38.86
51297;BME280;37380;45.186;9.792;2023-04-04T13:26:55;100960.72;;;12.62;40.30
51297;BME280;37380;45.186;9.792;2023-04-04T13:29:22;100934.63;;;12.36;40.76
51297;BME280;37380;45.186;9.792;2023-04-04T13:31:51;100948.81;;;12.44;38.11
51297;BME280;37380;45.186;9.792;2023-04-04T13:34:21;100956.03;;;12.52;36.53
51297;BME280;37380;45.186;9.792;2023-04-04T13:36:50;100974.34;;;12.23;41.12
51297;BME280;37380;45.186;9.792;2023-04-04T13:39:18;100960.91;;;12.12;37.71
51297;BME280;37380;45.186;9.792;2023-04-04T13:41:52;100974.22;;;12.45;39.80
51297;BME280;37380;45.186;9.792;2023-04-04T13:44:52;100958.75;;;12.83;38.91
51297;BME280;37380;45.186;9.792;2023-04-04T13:47:53;100944.53;;;12.75;38.64
51297;BME280;37380;45.186;9.792;2023-04-04T13:50:55;100957.44;;;12.40;39.28
51297;BME280;37380;45.186;9.792;2023-04-04T13:53:49;100951.22;;;12.37;38.91
51297;BME280;37380;45.186;9.792;2023-04-04T13:56:49;100943.88;;;12.25;38.20
51297;BME280;37380;45.186;9.792;2023-04-04T13:59:44;100916.84;;;11.99;39.11
51297;BME280;37380;45.186;9.792;2023-04-04T14:02:11;100945.91;;;12.62;39.15